createdAt,value
2022-09-20T00:01:07.750Z,57.78
2022-09-20T00:03:35.983Z,57.82
2022-09-20T00:06:03.732Z,57.58
2022-09-20T00:08:31.450Z,57.89
2022-09-20T00:11:01.645Z,57.72
2022-09-20T00:13:29.319Z,57.57
2022-09-20T00:15:58.359Z,57.60
2022-09-20T00:18:26.180Z,57.79
2022-09-20T00:20:54.048Z,57.66
2022-09-20T00:23:21.758Z,57.89
2022-09-20T00:25:55.911Z,57.92
2022-09-20T00:28:23.716Z,57.81
2022-09-20T00:30:52.018Z,58.11
2022-09-20T00:33:21.087Z,57.95
2022-09-20T00:35:47.878Z,57.81
2022-09-20T00:38:15.628Z,58.07
2022-09-20T00:40:43.470Z,58.02
2022-09-20T00:43:13.989Z,58.18
2022-09-20T00:45:41.709Z,57.94
2022-09-20T00:48:12.640Z,57.94
2022-09-20T00:50:42.622Z,58.06
2022-09-20T00:53:12.201Z,57.82
2022-09-20T00:55:41.966Z,57.76
2022-09-20T00:58:09.665Z,57.91
2022-09-20T01:00:37.323Z,57.75
2022-09-20T01:03:07.133Z,57.93
2022-09-20T01:05:34.868Z,57.59
2022-09-20T01:08:04.071Z,58.00
2022-09-20T01:10:32.589Z,57.70
2022-09-20T01:13:00.704Z,57.82
2022-09-20T01:15:28.815Z,58.07
2022-09-20T01:17:56.641Z,57.96
2022-09-20T01:20:25.563Z,57.57
2022-09-20T01:23:13.811Z,57.95
2022-09-20T01:25:52.089Z,57.83
2022-09-20T01:28:21.113Z,57.75
2022-09-20T01:30:50.139Z,57.85
2022-09-20T01:33:19.412Z,57.65
2022-09-20T01:35:48.328Z,57.60
2022-09-20T01:38:23.546Z,57.54
2022-09-20T01:40:57.040Z,57.33
2022-09-20T01:43:28.592Z,57.88
2022-09-20T01:45:56.360Z,57.75
2022-09-20T01:48:27.484Z,57.83
2022-09-20T01:51:27.387Z,57.62
2022-09-20T01:54:27.183Z,57.63
2022-09-20T01:57:11.898Z,57.77
2022-09-20T02:00:05.107Z,57.71
2022-09-20T02:03:20.430Z,57.59
2022-09-20T02:06:12.884Z,57.51
2022-09-20T02:09:17.891Z,57.61
2022-09-20T02:11:55.059Z,57.54
2022-09-20T02:14:35.907Z,58.00
2022-09-20T02:17:11.839Z,57.89
2022-09-20T02:20:09.154Z,57.89
2022-09-20T02:22:50.267Z,57.76
2022-09-20T02:25:24.687Z,57.54
2022-09-20T02:28:00.642Z,57.75
2022-09-20T02:30:45.183Z,57.67
2022-09-20T02:33:30.999Z,57.48
2022-09-20T02:36:08.736Z,57.54
2022-09-20T02:38:43.242Z,57.73
2022-09-20T02:41:44.410Z,57.91
2022-09-20T02:44:16.490Z,57.81
2022-09-20T02:46:47.725Z,57.78
2022-09-20T02:49:20.155Z,57.85
2022-09-20T02:51:49.900Z,57.70
2022-09-20T02:54:22.330Z,57.78
2022-09-20T02:56:53.786Z,57.92
2022-09-20T02:59:26.790Z,57.64
2022-09-20T03:02:04.113Z,57.70
2022-09-20T03:04:38.966Z,57.51
2022-09-20T03:07:10.355Z,57.75
2022-09-20T03:09:42.960Z,57.59
2022-09-20T03:12:19.063Z,57.51
2022-09-20T03:14:48.956Z,57.70
2022-09-20T03:17:20.445Z,57.55
2022-09-20T03:19:56.841Z,57.44
2022-09-20T03:22:30.051Z,57.48
2022-09-20T03:25:10.416Z,57.57
2022-09-20T03:27:42.811Z,57.65
2022-09-20T03:30:25.490Z,57.57
2022-09-20T03:32:58.715Z,57.70
2022-09-20T03:35:37.197Z,57.73
2022-09-20T03:38:16.981Z,57.47
2022-09-20T03:40:58.869Z,57.65
2022-09-20T03:43:34.157Z,57.39
2022-09-20T03:46:08.187Z,57.54
2022-09-20T03:48:58.983Z,57.31
2022-09-20T03:51:33.750Z,57.35
2022-09-20T03:54:24.003Z,57.36
2022-09-20T03:57:07.448Z,57.49
2022-09-20T03:59:54.190Z,57.63
2022-09-20T04:02:29.863Z,57.29
2022-09-20T04:04:59.528Z,57.42
2022-09-20T04:07:31.765Z,57.51
2022-09-20T04:10:07.877Z,57.71
2022-09-20T04:12:42.016Z,57.53
2022-09-20T04:15:20.869Z,57.25
2022-09-20T04:17:52.531Z,57.32
2022-09-20T04:20:23.902Z,57.60
2022-09-20T04:22:53.155Z,57.25
2022-09-20T04:25:22.227Z,57.43
2022-09-20T04:27:51.204Z,57.44
2022-09-20T04:30:19.780Z,57.54
2022-09-20T04:32:50.790Z,57.66
2022-09-20T04:35:52.054Z,57.46
2022-09-20T04:38:21.911Z,57.75
2022-09-20T04:41:12.009Z,57.26
2022-09-20T04:43:54.321Z,57.50
2022-09-20T04:46:36.588Z,57.56
2022-09-20T04:49:36.994Z,57.42
2022-09-20T04:52:35.201Z,57.30
2022-09-20T04:55:45.610Z,57.23
2022-09-20T04:58:36.279Z,57.24
2022-09-20T05:01:43.143Z,57.44
2022-09-20T05:04:44.355Z,57.30
2022-09-20T05:07:23.522Z,57.53
2022-09-20T05:10:02.734Z,57.65
2022-09-20T05:12:54.559Z,57.70
2022-09-20T05:15:28.004Z,57.57
2022-09-20T05:18:09.928Z,57.22
2022-09-20T05:21:04.131Z,57.41
2022-09-20T05:23:47.763Z,57.20
2022-09-20T05:26:18.610Z,57.59
2022-09-20T05:28:53.390Z,57.42
2022-09-20T05:31:25.573Z,57.36
2022-09-20T05:33:56.417Z,57.42
2022-09-20T05:36:33.667Z,57.38
2022-09-20T05:39:05.797Z,57.31
2022-09-20T05:41:37.856Z,57.42
2022-09-20T05:44:11.600Z,57.45
2022-09-20T05:46:46.231Z,57.50
2022-09-20T05:49:19.021Z,57.18
2022-09-20T05:52:07.145Z,57.28
2022-09-20T05:54:58.246Z,57.47
2022-09-20T05:57:32.540Z,57.27
2022-09-20T06:00:05.345Z,57.35
2022-09-20T06:02:36.623Z,57.36
2022-09-20T06:05:06.792Z,57.50
2022-09-20T06:07:40.314Z,58.07
2022-09-20T06:10:26.107Z,58.26
2022-09-20T06:12:55.820Z,58.78
2022-09-20T06:15:27.648Z,59.37
2022-09-20T06:17:58.848Z,59.65
2022-09-20T06:20:28.199Z,59.81
2022-09-20T06:22:56.472Z,59.90
2022-09-20T06:25:25.262Z,60.34
2022-09-20T06:27:54.126Z,60.33
2022-09-20T06:30:24.128Z,60.25
2022-09-20T06:33:00.399Z,60.28
2022-09-20T06:35:33.139Z,60.06
2022-09-20T06:38:23.593Z,59.96
2022-09-20T06:41:09.019Z,60.99
2022-09-20T06:43:37.109Z,60.25
2022-09-20T06:46:04.900Z,60.86
2022-09-20T06:48:34.368Z,60.63
2022-09-20T06:51:02.665Z,60.97
2022-09-20T06:53:31.500Z,60.66
2022-09-20T06:55:59.230Z,60.80
2022-09-20T06:58:27.342Z,60.96
2022-09-20T07:00:55.074Z,61.33
2022-09-20T07:03:22.795Z,61.10
2022-09-20T07:05:51.879Z,61.15
2022-09-20T07:08:19.546Z,61.19
2022-09-20T07:10:47.240Z,60.93
2022-09-20T07:13:14.938Z,61.21
2022-09-20T07:15:42.958Z,61.15
2022-09-20T07:18:10.639Z,61.17
2022-09-20T07:20:38.344Z,61.03
2022-09-20T07:23:08.181Z,60.82
2022-09-20T07:25:36.857Z,60.98
2022-09-20T07:28:04.546Z,60.71
2022-09-20T07:30:32.226Z,60.91
2022-09-20T07:33:00.686Z,61.17
2022-09-20T07:35:28.480Z,60.83
2022-09-20T07:37:59.227Z,61.22
2022-09-20T07:40:28.411Z,60.90
2022-09-20T07:42:57.508Z,60.71
2022-09-20T07:45:25.271Z,60.56
2022-09-20T07:47:53.635Z,60.80
2022-09-20T07:50:21.293Z,60.61
2022-09-20T07:52:48.975Z,60.54
2022-09-20T07:55:16.712Z,60.42
2022-09-20T07:57:45.792Z,60.24
2022-09-20T08:00:14.305Z,60.35
2022-09-20T08:02:42.244Z,60.35
2022-09-20T08:05:10.123Z,60.15
2022-09-20T08:07:38.585Z,59.83
2022-09-20T08:10:06.939Z,60.03
2022-09-20T08:15:24.550Z,59.99
2022-09-20T08:17:52.496Z,60.03
2022-09-20T08:20:20.269Z,60.46
2022-09-20T08:23:06.386Z,60.52
2022-09-20T08:25:35.694Z,60.40
2022-09-20T08:28:03.643Z,60.25
2022-09-20T08:30:32.665Z,60.44
2022-09-20T08:33:00.402Z,60.47
2022-09-20T08:35:29.685Z,60.21
2022-09-20T08:39:56.002Z,60.50
2022-09-20T08:40:45.175Z,60.22
2022-09-20T08:43:13.051Z,60.12
2022-09-20T08:45:42.148Z,60.41
2022-09-20T08:48:14.369Z,60.39
2022-09-20T08:50:42.195Z,60.53
2022-09-20T08:53:10.460Z,60.37
2022-09-20T08:55:41.595Z,60.59
2022-09-20T08:58:10.806Z,60.02
2022-09-20T09:00:38.946Z,60.33
2022-09-20T09:03:11.944Z,60.35
2022-09-20T09:05:42.318Z,60.73
2022-09-20T09:08:16.351Z,60.59
2022-09-20T09:10:45.262Z,60.43
2022-09-20T09:13:19.551Z,60.30
2022-09-20T09:15:47.337Z,60.46
2022-09-20T09:18:16.379Z,60.46
2022-09-20T09:20:46.187Z,60.54
2022-09-20T09:23:25.376Z,60.70
2022-09-20T09:25:53.711Z,60.83
2022-09-20T09:28:23.928Z,60.49
2022-09-20T09:30:51.643Z,60.29
2022-09-20T09:33:25.194Z,60.54
2022-09-20T09:35:54.481Z,60.28
2022-09-20T09:38:24.218Z,59.60
2022-09-20T09:40:53.383Z,59.61
2022-09-20T09:43:23.418Z,59.66
2022-09-20T09:45:51.150Z,60.03
2022-09-20T09:48:19.927Z,60.15
2022-09-20T09:50:49.033Z,60.29
2022-09-20T09:53:18.104Z,60.07
2022-09-20T09:55:59.139Z,60.17
2022-09-20T09:58:36.839Z,60.04
2022-09-20T10:01:05.452Z,60.14
2022-09-20T10:03:46.966Z,60.17
2022-09-20T10:06:23.407Z,60.21
2022-09-20T10:09:06.620Z,60.21
2022-09-20T10:11:41.479Z,60.27
2022-09-20T10:14:17.803Z,59.86
2022-09-20T10:16:56.231Z,60.04
2022-09-20T10:19:26.572Z,59.97
2022-09-20T10:21:58.018Z,60.02
2022-09-20T10:24:31.309Z,59.86
2022-09-20T10:27:06.774Z,59.76
2022-09-20T10:29:41.222Z,59.70
2022-09-20T10:32:18.954Z,59.85
2022-09-20T10:35:02.845Z,60.07
2022-09-20T10:37:36.843Z,59.98
2022-09-20T10:40:07.592Z,60.09
2022-09-20T10:42:56.139Z,59.96
2022-09-20T10:45:55.905Z,60.12
2022-09-20T10:48:18.129Z,60.02
2022-09-20T10:50:47.104Z,59.75
2022-09-20T10:53:28.631Z,59.60
2022-09-20T10:56:04.142Z,59.87
2022-09-20T10:58:52.111Z,59.62
2022-09-20T11:01:22.861Z,59.81
2022-09-20T11:03:57.330Z,59.95
2022-09-20T11:06:27.034Z,59.81
2022-09-20T11:08:57.197Z,59.72
2022-09-20T11:11:24.817Z,59.87
2022-09-20T11:13:57.367Z,59.95
2022-09-20T11:16:27.682Z,59.93
2022-09-20T11:18:58.929Z,60.11
2022-09-20T11:21:28.290Z,59.66
2022-09-20T11:23:58.510Z,60.00
2022-09-20T11:26:29.212Z,59.86
2022-09-20T11:28:58.658Z,59.58
2022-09-20T11:31:27.369Z,59.56
2022-09-20T11:33:57.722Z,59.87
2022-09-20T11:36:27.207Z,59.59
2022-09-20T11:38:58.223Z,59.70
2022-09-20T11:41:28.009Z,59.79
2022-09-20T11:43:56.834Z,59.71
2022-09-20T11:46:32.959Z,59.67
2022-09-20T11:49:01.842Z,59.76
2022-09-20T11:51:49.518Z,59.79
2022-09-20T11:54:31.936Z,59.65
2022-09-20T11:57:00.024Z,59.66
2022-09-20T11:59:30.631Z,59.77
2022-09-20T12:01:59.520Z,59.82
2022-09-20T12:04:32.775Z,59.46
2022-09-20T12:07:08.323Z,59.55
2022-09-20T12:09:39.604Z,59.43
2022-09-20T12:12:16.192Z,59.58
2022-09-20T12:14:44.663Z,59.65
2022-09-20T12:17:45.674Z,59.42
2022-09-20T12:20:53.350Z,59.75
2022-09-20T12:24:01.608Z,59.71
2022-09-20T12:26:53.296Z,59.59
2022-09-20T12:29:55.085Z,59.51
2022-09-20T12:32:34.740Z,59.67
2022-09-20T12:35:02.406Z,59.68
2022-09-20T12:37:30.103Z,59.41
2022-09-20T12:39:57.865Z,59.68
2022-09-20T12:42:30.314Z,59.33
2022-09-20T12:45:01.032Z,59.57
2022-09-20T12:47:29.174Z,59.64
2022-09-20T12:50:14.321Z,59.37
2022-09-20T12:53:00.745Z,59.68
2022-09-20T12:55:43.768Z,59.37
2022-09-20T12:58:34.575Z,59.27
2022-09-20T13:01:31.129Z,59.52
2022-09-20T13:04:36.575Z,59.28
2022-09-20T13:07:38.904Z,59.26
2022-09-20T13:10:24.634Z,59.32
2022-09-20T13:12:54.616Z,59.09
2022-09-20T13:15:23.561Z,59.18
2022-09-20T13:17:52.431Z,59.24
2022-09-20T13:20:21.870Z,59.34
2022-09-20T13:22:49.724Z,59.32
2022-09-20T13:25:18.130Z,58.97
2022-09-20T13:27:49.716Z,58.79
2022-09-20T13:30:19.011Z,59.13
2022-09-20T13:32:48.134Z,58.98
2022-09-20T13:37:36.144Z,58.80
2022-09-20T13:40:04.463Z,58.51
2022-09-20T13:42:32.238Z,58.74
2022-09-20T13:44:59.892Z,58.73
2022-09-20T13:47:28.374Z,58.31
2022-09-20T13:50:02.633Z,58.32
2022-09-20T13:52:31.468Z,58.13
2022-09-20T13:54:59.148Z,58.38
2022-09-20T13:57:28.661Z,57.99
2022-09-20T13:59:57.898Z,58.10
2022-09-20T14:02:27.933Z,57.80
2022-09-20T14:04:56.891Z,57.78
2022-09-20T14:07:28.267Z,57.75
2022-09-20T14:09:56.644Z,57.48
2022-09-20T14:12:24.473Z,57.56
2022-09-20T14:14:53.519Z,57.38
2022-09-20T14:17:24.411Z,57.69
2022-09-20T14:19:54.501Z,57.54
2022-09-20T14:22:24.360Z,57.41
2022-09-20T14:25:01.514Z,57.57
2022-09-20T14:27:31.118Z,57.46
2022-09-20T14:29:58.813Z,57.58
2022-09-20T14:32:32.166Z,57.57
2022-09-20T14:35:02.161Z,57.59
2022-09-20T14:37:31.448Z,57.65
2022-09-20T14:40:01.053Z,57.66
2022-09-20T14:42:31.369Z,57.61
2022-09-20T14:44:59.058Z,57.52
2022-09-20T14:47:30.780Z,57.80
2022-09-20T14:49:59.086Z,57.85
2022-09-20T14:52:38.273Z,57.82
2022-09-20T14:55:19.343Z,57.61
2022-09-20T14:57:47.238Z,57.68
2022-09-20T15:00:16.143Z,57.70
2022-09-20T15:02:44.406Z,57.33
2022-09-20T15:05:23.826Z,57.57
2022-09-20T15:07:51.565Z,57.70
2022-09-20T15:10:21.090Z,57.39
2022-09-20T15:12:48.783Z,57.54
2022-09-20T15:15:17.443Z,57.24
2022-09-20T15:17:45.878Z,57.55
2022-09-20T15:20:23.188Z,57.48
2022-09-20T15:22:51.943Z,57.45
2022-09-20T15:25:24.603Z,57.40
2022-09-20T15:27:52.325Z,57.44
2022-09-20T15:30:21.014Z,57.38
2022-09-20T15:32:48.814Z,57.57
2022-09-20T15:35:16.572Z,57.56
2022-09-20T15:37:45.036Z,57.66
2022-09-20T15:40:12.752Z,57.52
2022-09-20T15:42:41.985Z,57.49
2022-09-20T15:45:10.806Z,57.45
2022-09-20T15:47:38.572Z,57.43
2022-09-20T15:50:08.477Z,57.49
2022-09-20T15:52:36.764Z,57.61
2022-09-20T15:55:04.845Z,57.49
2022-09-20T15:57:32.588Z,57.89
2022-09-20T16:00:01.700Z,57.87
2022-09-20T16:02:29.615Z,57.69
2022-09-20T16:04:59.369Z,57.65
2022-09-20T16:07:27.354Z,57.74
2022-09-20T16:09:55.231Z,58.01
2022-09-20T16:12:23.251Z,57.93
2022-09-20T16:14:50.943Z,57.87
2022-09-20T16:17:39.982Z,57.70
2022-09-20T16:20:07.722Z,57.80
2022-09-20T16:22:35.422Z,57.92
2022-09-20T16:25:03.910Z,57.85
2022-09-20T16:27:34.143Z,57.72
2022-09-20T16:30:02.557Z,57.75
2022-09-20T16:32:31.598Z,57.65
2022-09-20T16:35:01.180Z,57.71
2022-09-20T16:37:32.901Z,57.64
2022-09-20T16:40:00.739Z,57.72
2022-09-20T16:42:29.448Z,57.58
2022-09-20T16:44:57.141Z,57.56
2022-09-20T16:47:25.153Z,57.79
2022-09-20T16:49:54.765Z,57.79
2022-09-20T16:52:22.660Z,57.53
2022-09-20T16:54:50.419Z,57.82
2022-09-20T16:57:18.839Z,57.70
2022-09-20T16:59:46.820Z,57.71
2022-09-20T17:02:14.484Z,57.90
2022-09-20T17:04:43.709Z,58.01
2022-09-20T17:07:12.826Z,57.93
2022-09-20T17:09:40.510Z,57.91
2022-09-20T17:12:09.571Z,57.94
2022-09-20T17:14:38.144Z,57.90
2022-09-20T17:17:06.444Z,57.81
2022-09-20T17:19:34.464Z,58.03
2022-09-20T17:22:02.154Z,58.02
2022-09-20T17:24:31.277Z,58.08
2022-09-20T17:26:59.159Z,57.91
2022-09-20T17:29:27.671Z,58.04
2022-09-20T17:31:59.585Z,58.09
2022-09-20T17:34:30.013Z,58.22
2022-09-20T17:36:57.668Z,58.12
2022-09-20T17:39:25.448Z,58.27
2022-09-20T17:41:54.443Z,58.14
2022-09-20T17:44:22.263Z,58.27
2022-09-20T17:46:50.560Z,58.24
2022-09-20T17:49:19.431Z,58.31
2022-09-20T17:51:47.806Z,58.01
2022-09-20T17:54:15.681Z,58.05
2022-09-20T17:56:43.708Z,58.22
2022-09-20T17:59:13.039Z,57.96
2022-09-20T18:01:40.788Z,58.26
2022-09-20T18:04:09.097Z,58.07
2022-09-20T18:06:37.590Z,58.03
2022-09-20T18:09:06.216Z,57.95
2022-09-20T18:11:35.111Z,58.25
2022-09-20T18:14:03.091Z,58.31
2022-09-20T18:16:33.125Z,58.20
2022-09-20T18:19:00.872Z,58.09
2022-09-20T18:21:29.219Z,58.27
2022-09-20T18:23:57.321Z,58.24
2022-09-20T18:26:25.877Z,58.26
2022-09-20T18:28:54.996Z,57.96
2022-09-20T18:31:23.031Z,58.06
2022-09-20T18:33:55.096Z,57.93
2022-09-20T18:36:25.619Z,58.19
2022-09-20T18:38:56.666Z,58.09
2022-09-20T18:41:25.588Z,57.92
2022-09-20T18:43:54.338Z,58.08
2022-09-20T18:46:24.949Z,58.18
2022-09-20T18:48:54.500Z,57.92
2022-09-20T18:51:24.271Z,58.07
2022-09-20T18:53:52.063Z,57.95
2022-09-20T18:56:22.691Z,57.97
2022-09-20T18:58:51.342Z,57.76
2022-09-20T19:01:40.956Z,58.05
2022-09-20T19:04:17.800Z,57.54
2022-09-20T19:06:48.022Z,57.98
2022-09-20T19:09:18.286Z,57.80
2022-09-20T19:11:49.859Z,57.93
2022-09-20T19:14:20.143Z,57.86
2022-09-20T19:16:47.814Z,58.11
2022-09-20T19:19:24.279Z,57.95
2022-09-20T19:21:58.472Z,57.75
2022-09-20T19:24:32.706Z,57.90
2022-09-20T19:27:00.620Z,57.86
2022-09-20T19:29:29.289Z,57.93
2022-09-20T19:31:58.074Z,57.82
2022-09-20T19:34:28.282Z,57.96
2022-09-20T19:36:59.114Z,57.81
2022-09-20T19:39:31.291Z,57.63
2022-09-20T19:42:03.953Z,57.64
2022-09-20T19:44:34.367Z,57.62
2022-09-20T19:47:09.506Z,57.53
2022-09-20T19:49:44.947Z,57.81
2022-09-20T19:52:13.749Z,57.54
2022-09-20T19:54:46.515Z,57.47
2022-09-20T19:57:18.535Z,57.65
2022-09-20T19:59:46.999Z,57.65
2022-09-20T20:02:15.440Z,57.49
2022-09-20T20:04:45.092Z,57.38
2022-09-20T20:07:21.300Z,57.30
2022-09-20T20:09:52.224Z,57.47
2022-09-20T20:12:25.704Z,57.22
2022-09-20T20:14:58.334Z,57.66
2022-09-20T20:17:34.394Z,57.53
2022-09-20T20:20:20.207Z,57.33
2022-09-20T20:23:23.197Z,57.23
2022-09-20T20:25:53.431Z,57.40
2022-09-20T20:28:21.196Z,57.17
2022-09-20T20:30:48.894Z,57.16
2022-09-20T20:33:16.922Z,57.58
2022-09-20T20:35:53.072Z,57.07
2022-09-20T20:38:21.550Z,57.40
2022-09-20T20:40:49.240Z,57.28
2022-09-20T20:43:16.953Z,57.25
2022-09-20T20:45:50.715Z,57.29
2022-09-20T20:48:18.378Z,57.11
2022-09-20T20:50:47.516Z,57.04
2022-09-20T20:53:15.487Z,57.01
2022-09-20T20:55:43.153Z,57.02
2022-09-20T20:58:10.816Z,56.96
2022-09-20T21:00:38.505Z,57.00
2022-09-20T21:03:06.297Z,56.95
2022-09-20T21:05:33.988Z,57.00
2022-09-20T21:08:03.392Z,57.20
2022-09-20T21:10:31.074Z,56.98
2022-09-20T21:13:00.175Z,56.92
2022-09-20T21:15:27.991Z,57.15
2022-09-20T21:17:55.684Z,56.81
2022-09-20T21:20:23.372Z,57.04
2022-09-20T21:22:51.083Z,56.80
2022-09-20T21:25:20.135Z,56.74
2022-09-20T21:27:47.798Z,56.73
2022-09-20T21:30:15.558Z,56.52
2022-09-20T21:32:43.223Z,56.85
2022-09-20T21:35:11.605Z,56.80
2022-09-20T21:37:39.381Z,56.73
2022-09-20T21:40:07.923Z,56.63
2022-09-20T21:42:36.955Z,56.72
2022-09-20T21:45:08.543Z,56.58
2022-09-20T21:47:36.219Z,56.26
2022-09-20T21:50:03.936Z,56.37
2022-09-20T21:52:31.589Z,56.52
2022-09-20T21:54:59.294Z,56.64
2022-09-20T21:57:27.184Z,56.63
2022-09-20T21:59:56.211Z,56.48
2022-09-20T22:02:24.159Z,56.30
2022-09-20T22:04:51.903Z,56.18
2022-09-20T22:07:19.882Z,56.31
2022-09-20T22:09:47.588Z,56.37
2022-09-20T22:12:15.251Z,56.26
2022-09-20T22:14:44.489Z,56.11
2022-09-20T22:17:13.499Z,56.19
2022-09-20T22:19:41.186Z,56.29
2022-09-20T22:22:08.912Z,56.25
2022-09-20T22:24:36.594Z,56.04
2022-09-20T22:27:04.279Z,55.90
2022-09-20T22:29:31.979Z,56.16
2022-09-20T22:31:59.633Z,56.17
2022-09-20T22:34:28.681Z,55.91
2022-09-20T22:36:56.343Z,55.95
2022-09-20T22:39:24.028Z,55.91
2022-09-20T22:41:52.395Z,55.82
2022-09-20T22:44:20.071Z,55.95
2022-09-20T22:46:47.734Z,55.79
2022-09-20T22:49:15.403Z,56.01
2022-09-20T22:51:44.392Z,55.87
2022-09-20T22:54:12.692Z,55.73
2022-09-20T22:56:41.338Z,55.95
2022-09-20T22:59:09.900Z,55.75
2022-09-20T23:01:38.222Z,55.63
2022-09-20T23:04:07.709Z,55.63
2022-09-20T23:06:36.884Z,55.46
2022-09-20T23:09:07.889Z,55.77
2022-09-20T23:11:35.622Z,55.56
2022-09-20T23:14:04.880Z,55.60
2022-09-20T23:16:33.324Z,55.93
2022-09-20T23:19:01.563Z,55.58
2022-09-20T23:21:29.452Z,55.85
2022-09-20T23:23:57.901Z,55.58
2022-09-20T23:26:27.129Z,55.80
2022-09-20T23:28:56.078Z,55.91
2022-09-20T23:31:23.911Z,55.59
2022-09-20T23:33:52.373Z,55.76
2022-09-20T23:36:20.210Z,55.68
2022-09-20T23:38:47.921Z,55.92
2022-09-20T23:41:17.063Z,55.90
2022-09-20T23:43:46.111Z,55.91
2022-09-20T23:46:14.495Z,55.80
2022-09-20T23:48:42.416Z,56.08
2022-09-20T23:51:10.734Z,55.82
2022-09-20T23:53:38.409Z,55.94
2022-09-20T23:56:07.194Z,55.66
2022-09-20T23:58:35.605Z,55.68
